Hauptseite
METAR-TAF:

METAR-TAF

Flughäfen :

Quakertown Airport

Quakertown, Pennsylvania, Vereinigte Staaten

Breite: 40-26-06N, Länge: 075-22-54W, Höhe: 160 m

Beobachtung

Neuester Wetterbericht von vor 26 Minuten, um 22:35 UTC
Wind 5 kt aus West
Temperatur 23°C
Luftfeuchtigkeit 33%
Luftdruck 1013 hPa
Sichtweite: 16.1 km
Himmel klar

METAR: KUKT 162235Z AUTO 28005KT 10SM CLR 23/06 A2990 RMK A01

Zeit: 19:01 (23:01 UTC)


TAF: fehlend

Wetterbeobachtungen und Prognosen von mehr als 4000 Flughäfen (METAR und TAF Bericht).

Die verfügbaren Stationen werden durch gelbe und rote Markierungen auf der Karte dargestellt.

Führen Sie die Maus auf sie, um den Namen der Station zu sehen.

Darauf klicken, um die Beobachtung von Wetterbeobachtungen und Prognosen zu sehen.

Um die Karte zu ändern : klicken Sie auf den grünen Tasten mit einem schwarzen Kreuz Zum Vergrößern, auf den grünen Button mit einem Gedankenstrich zu verkleinern, oder auf die grünen Pfeile für benachbarte Karten.


METAR-TAF: